createdAt,value
2019-01-11T00:00:46.951Z,6.00
2019-01-11T00:03:15.391Z,4.80
2019-01-11T00:05:43.839Z,5.73
2019-01-11T00:08:12.407Z,6.90
2019-01-11T00:10:40.859Z,5.60
2019-01-11T00:13:09.427Z,4.73
2019-01-11T00:15:38.268Z,5.40
2019-01-11T00:18:06.769Z,5.17
2019-01-11T00:20:35.898Z,5.50
2019-01-11T00:23:04.566Z,4.90
2019-01-11T00:25:33.075Z,5.30
2019-01-11T00:28:01.575Z,5.20
2019-01-11T00:30:30.010Z,6.07
2019-01-11T00:32:58.451Z,5.60
2019-01-11T00:35:26.886Z,5.43
2019-01-11T00:37:55.339Z,4.80
2019-01-11T00:40:23.794Z,5.30
2019-01-11T00:42:52.208Z,5.00
2019-01-11T00:45:20.646Z,4.73
2019-01-11T00:47:49.154Z,6.23
2019-01-11T00:50:17.594Z,5.43
2019-01-11T00:52:46.039Z,4.47
2019-01-11T00:55:14.534Z,5.37
2019-01-11T00:57:42.984Z,4.50
2019-01-11T01:00:17.275Z,4.70
2019-01-11T01:02:45.806Z,5.20
2019-01-11T01:05:14.571Z,5.13
2019-01-11T01:07:43.148Z,4.60
2019-01-11T01:10:11.819Z,4.70
2019-01-11T01:12:40.264Z,4.60
2019-01-11T01:15:11.418Z,4.13
2019-01-11T01:17:40.007Z,5.50
2019-01-11T01:20:13.984Z,3.90
2019-01-11T01:22:42.424Z,4.70
2019-01-11T01:25:11.758Z,3.87
2019-01-11T01:27:41.166Z,3.70
2019-01-11T01:30:18.099Z,4.70
2019-01-11T01:32:46.602Z,4.33
2019-01-11T01:35:15.279Z,4.67
2019-01-11T01:37:44.161Z,4.10
2019-01-11T01:40:16.855Z,4.13
2019-01-11T01:42:45.359Z,4.13
2019-01-11T01:45:16.054Z,3.77
2019-01-11T01:47:44.486Z,3.73
2019-01-11T01:50:13.354Z,3.87
2019-01-11T01:52:41.856Z,4.20
2019-01-11T01:55:12.289Z,4.67
2019-01-11T01:57:40.726Z,4.43
2019-01-11T02:00:18.242Z,4.60
2019-01-11T02:02:46.930Z,4.20
2019-01-11T02:05:15.695Z,6.90
2019-01-11T02:07:44.123Z,6.97
2019-01-11T02:10:13.805Z,5.57
2019-01-11T02:12:42.227Z,4.77
2019-01-11T02:15:11.710Z,4.00
2019-01-11T02:17:40.212Z,4.43
2019-01-11T02:20:11.767Z,4.37
2019-01-11T02:22:40.214Z,4.70
2019-01-11T02:25:09.204Z,4.20
2019-01-11T02:27:37.640Z,4.43
2019-01-11T02:30:09.162Z,4.20
2019-01-11T02:32:37.593Z,4.63
2019-01-11T02:35:06.107Z,4.10
2019-01-11T02:37:34.603Z,3.90
2019-01-11T02:40:04.490Z,3.93
2019-01-11T02:42:32.921Z,4.23
2019-01-11T02:45:01.366Z,4.10
2019-01-11T02:47:29.792Z,3.77
2019-01-11T02:49:58.250Z,4.27
2019-01-11T02:52:26.735Z,3.80
2019-01-11T02:54:55.176Z,3.80
2019-01-11T02:57:23.599Z,3.93
2019-01-11T02:59:52.059Z,4.60
2019-01-11T03:02:20.490Z,4.40
2019-01-11T03:04:48.947Z,3.80
2019-01-11T03:07:17.367Z,3.80
2019-01-11T03:09:45.811Z,4.17
2019-01-11T03:12:14.247Z,4.43
2019-01-11T03:14:42.682Z,4.30
2019-01-11T03:17:11.141Z,4.63
2019-01-11T03:19:39.574Z,4.00
2019-01-11T03:22:08.078Z,4.13
2019-01-11T03:24:36.529Z,3.47
2019-01-11T03:27:04.954Z,4.90
2019-01-11T03:29:34.730Z,4.40
2019-01-11T03:32:03.293Z,4.43
2019-01-11T03:34:33.355Z,4.63
2019-01-11T03:37:01.808Z,4.03
2019-01-11T03:39:30.299Z,4.37
2019-01-11T03:42:00.404Z,3.70
2019-01-11T03:44:28.845Z,4.40
2019-01-11T03:46:57.287Z,5.00
2019-01-11T03:49:25.781Z,4.40
2019-01-11T03:51:54.224Z,4.87
2019-01-11T03:54:22.647Z,3.90
2019-01-11T03:56:51.367Z,4.50
2019-01-11T03:59:19.792Z,4.43
2019-01-11T04:01:48.230Z,4.30
2019-01-11T04:04:16.649Z,4.00
2019-01-11T04:06:45.089Z,4.30
2019-01-11T04:09:13.536Z,4.40
2019-01-11T04:11:41.985Z,5.20
2019-01-11T04:14:10.439Z,5.40
2019-01-11T04:16:38.861Z,5.20
2019-01-11T04:19:08.063Z,5.60
2019-01-11T04:21:36.492Z,5.37
2019-01-11T04:24:05.110Z,4.77
2019-01-11T04:26:33.538Z,4.90
2019-01-11T04:29:01.983Z,5.23
2019-01-11T04:31:30.410Z,5.00
2019-01-11T04:33:58.850Z,4.70
2019-01-11T04:36:27.280Z,5.37
2019-01-11T04:38:55.818Z,4.80
2019-01-11T04:41:24.250Z,5.90
2019-01-11T04:43:52.968Z,5.07
2019-01-11T04:46:21.399Z,5.80
2019-01-11T04:48:49.856Z,4.90
2019-01-11T04:51:18.272Z,4.90
2019-01-11T04:53:48.346Z,4.80
2019-01-11T04:56:16.775Z,4.90
2019-01-11T04:58:45.264Z,4.60
2019-01-11T05:01:13.712Z,5.37
2019-01-11T05:03:42.147Z,5.00
2019-01-11T05:06:10.570Z,5.40
2019-01-11T05:08:39.011Z,6.27
2019-01-11T05:11:07.444Z,9.50
2019-01-11T05:13:36.953Z,24.60
2019-01-11T05:16:05.468Z,26.90
2019-01-11T05:18:33.907Z,26.37
2019-01-11T05:21:02.374Z,25.30
2019-01-11T05:23:30.808Z,39.37
2019-01-11T05:25:59.743Z,12.60
2019-01-11T05:28:28.170Z,7.30
2019-01-11T05:30:57.840Z,7.20
2019-01-11T05:33:26.264Z,6.53
2019-01-11T05:35:54.723Z,5.73
2019-01-11T05:38:23.150Z,5.60
2019-01-11T05:40:51.586Z,7.77
2019-01-11T05:43:20.020Z,7.73
2019-01-11T05:45:48.540Z,6.40
2019-01-11T05:48:16.979Z,7.77
2019-01-11T05:50:45.418Z,9.10
2019-01-11T05:53:13.869Z,7.70
2019-01-11T05:55:45.808Z,8.47
2019-01-11T05:58:21.767Z,8.53
2019-01-11T06:00:50.208Z,15.13
2019-01-11T06:03:18.663Z,11.40
2019-01-11T06:05:47.184Z,13.03
2019-01-11T06:08:19.398Z,13.20
2019-01-11T06:10:47.855Z,9.83
2019-01-11T06:13:16.303Z,8.20
2019-01-11T06:15:44.751Z,7.80
2019-01-11T06:18:13.862Z,7.30
2019-01-11T06:20:42.314Z,7.30
2019-01-11T06:23:10.763Z,17.73
2019-01-11T06:25:39.237Z,9.80
2019-01-11T06:28:07.661Z,17.40
2019-01-11T06:30:36.151Z,10.80
2019-01-11T06:33:04.647Z,32.50
2019-01-11T06:35:33.088Z,11.13
2019-01-11T06:38:01.521Z,14.20
2019-01-11T06:40:29.964Z,8.37
2019-01-11T06:43:03.534Z,7.30
2019-01-11T06:45:28.576Z,7.17
2019-01-11T06:47:57.031Z,8.63
2019-01-11T06:50:25.467Z,9.90
2019-01-11T06:52:53.914Z,9.43
2019-01-11T06:55:22.362Z,9.53
2019-01-11T06:57:50.819Z,7.80
2019-01-11T07:00:19.391Z,7.50
2019-01-11T07:02:47.842Z,9.50
2019-01-11T07:05:16.284Z,8.03
2019-01-11T07:07:44.732Z,11.80
2019-01-11T07:10:16.176Z,17.17
2019-01-11T07:12:44.633Z,14.70
2019-01-11T07:15:13.136Z,12.43
2019-01-11T07:17:41.593Z,11.17
2019-01-11T07:20:12.364Z,9.30
2019-01-11T07:22:40.841Z,8.40
2019-01-11T07:25:11.498Z,7.70
2019-01-11T07:27:44.607Z,10.10
2019-01-11T07:30:15.051Z,12.10
2019-01-11T07:32:43.523Z,9.17
2019-01-11T07:35:12.024Z,8.93
2019-01-11T07:37:40.481Z,9.53
2019-01-11T07:40:12.694Z,10.27
2019-01-11T07:42:41.204Z,9.43
2019-01-11T07:45:12.096Z,10.93
2019-01-11T07:47:40.541Z,8.97
2019-01-11T07:50:10.020Z,12.10
2019-01-11T07:52:40.041Z,9.43
2019-01-11T07:55:09.645Z,10.93
2019-01-11T07:57:38.083Z,10.80
2019-01-11T08:00:13.714Z,12.00
2019-01-11T08:02:42.222Z,11.30
2019-01-11T08:05:10.738Z,12.30
2019-01-11T08:07:39.199Z,11.10
2019-01-11T08:10:10.317Z,10.67
2019-01-11T08:12:38.730Z,11.37
2019-01-11T08:15:10.277Z,10.77
2019-01-11T08:17:38.722Z,10.80
2019-01-11T08:20:08.823Z,10.60
2019-01-11T08:22:38.892Z,12.53
2019-01-11T08:25:07.490Z,10.00
2019-01-11T08:27:35.929Z,11.17
2019-01-11T08:30:07.386Z,10.37
2019-01-11T08:32:35.816Z,10.97
2019-01-11T08:35:07.797Z,10.83
2019-01-11T08:37:36.296Z,11.00
2019-01-11T08:40:07.379Z,10.07
2019-01-11T08:42:35.875Z,10.20
2019-01-11T08:45:06.858Z,11.00
2019-01-11T08:47:35.298Z,11.83
2019-01-11T08:50:05.283Z,12.30
2019-01-11T08:52:33.724Z,11.40
2019-01-11T08:55:02.149Z,11.13
2019-01-11T08:57:30.591Z,11.30
2019-01-11T08:59:59.015Z,9.80
2019-01-11T09:02:27.466Z,11.07
2019-01-11T09:04:55.892Z,8.10
2019-01-11T09:07:24.349Z,11.10
2019-01-11T09:09:52.847Z,12.80
2019-01-11T09:12:21.283Z,12.13
2019-01-11T09:14:50.395Z,11.57
2019-01-11T09:17:19.205Z,13.13
2019-01-11T09:19:47.639Z,12.00
2019-01-11T09:22:16.099Z,11.23
2019-01-11T09:24:44.536Z,12.13
2019-01-11T09:27:13.001Z,12.67
2019-01-11T09:29:41.435Z,13.43
2019-01-11T09:32:09.887Z,13.30
2019-01-11T09:34:38.319Z,14.50
2019-01-11T09:37:06.770Z,15.27
2019-01-11T09:39:35.194Z,15.60
2019-01-11T09:42:03.784Z,15.60
2019-01-11T09:44:32.282Z,17.00
2019-01-11T09:47:00.736Z,17.33
2019-01-11T09:49:29.156Z,18.57
2019-01-11T09:51:57.585Z,18.17
2019-01-11T09:54:26.037Z,18.57
2019-01-11T09:56:54.474Z,20.50
2019-01-11T09:59:22.916Z,19.63
2019-01-11T10:01:52.992Z,19.47
2019-01-11T10:04:23.086Z,18.83
2019-01-11T10:06:53.162Z,18.87
2019-01-11T10:09:21.660Z,17.57
2019-01-11T10:11:50.173Z,17.80
2019-01-11T10:14:18.616Z,18.10
2019-01-11T10:16:47.052Z,17.70
2019-01-11T10:19:15.495Z,18.73
2019-01-11T10:21:43.958Z,17.70
2019-01-11T10:24:12.400Z,16.00
2019-01-11T10:26:40.834Z,16.10
2019-01-11T10:29:09.280Z,14.67
2019-01-11T10:31:37.727Z,16.13
2019-01-11T10:34:06.163Z,13.27
2019-01-11T10:36:34.591Z,14.47
2019-01-11T10:39:03.275Z,14.50
2019-01-11T10:41:31.779Z,14.40
2019-01-11T10:44:00.222Z,13.13
2019-01-11T10:46:30.299Z,15.10
2019-01-11T10:48:58.745Z,13.13
2019-01-11T10:51:28.246Z,12.97
2019-01-11T10:53:56.703Z,12.67
2019-01-11T10:56:25.138Z,12.57
2019-01-11T10:58:53.596Z,13.20
2019-01-11T11:01:22.036Z,12.00
2019-01-11T11:03:50.527Z,10.90
2019-01-11T11:06:19.014Z,10.23
2019-01-11T11:08:47.467Z,9.73
2019-01-11T11:11:16.793Z,11.60
2019-01-11T11:13:45.344Z,11.63
2019-01-11T11:16:13.866Z,10.10
2019-01-11T11:18:42.420Z,9.90
2019-01-11T11:21:10.931Z,10.83
2019-01-11T11:23:39.368Z,10.23
2019-01-11T11:26:07.811Z,9.97
2019-01-11T11:28:36.251Z,10.13
2019-01-11T11:31:04.691Z,9.17
2019-01-11T11:33:33.119Z,9.97
2019-01-11T11:36:02.448Z,11.53
2019-01-11T11:38:30.886Z,10.13
2019-01-11T11:40:59.415Z,9.40
2019-01-11T11:43:27.852Z,10.33
2019-01-11T11:45:56.299Z,11.47
2019-01-11T11:48:24.786Z,10.53
2019-01-11T11:50:53.254Z,9.90
2019-01-11T11:53:21.691Z,9.20
2019-01-11T11:55:50.138Z,9.90
2019-01-11T11:58:18.566Z,10.37
2019-01-11T12:00:47.086Z,9.97
2019-01-11T12:03:15.551Z,9.97
2019-01-11T12:05:44.031Z,10.00
2019-01-11T12:08:12.524Z,9.53
2019-01-11T12:10:41.042Z,10.27
2019-01-11T12:13:09.457Z,9.60
2019-01-11T12:15:37.895Z,9.53
2019-01-11T12:18:06.338Z,8.70
2019-01-11T12:20:35.020Z,10.50
2019-01-11T12:23:03.609Z,10.27
2019-01-11T12:25:32.057Z,9.93
2019-01-11T12:28:00.520Z,7.93
2019-01-11T12:30:29.026Z,8.50
2019-01-11T12:32:57.517Z,8.03
2019-01-11T12:35:25.979Z,8.13
2019-01-11T12:37:54.441Z,8.40
2019-01-11T12:40:22.869Z,8.40
2019-01-11T12:42:51.300Z,8.73
2019-01-11T12:45:19.734Z,9.00
2019-01-11T12:47:48.188Z,9.60
2019-01-11T12:50:18.958Z,9.47
2019-01-11T12:52:47.425Z,8.83
2019-01-11T12:55:15.923Z,9.67
2019-01-11T12:57:44.388Z,8.70
2019-01-11T13:00:15.157Z,8.97
2019-01-11T13:02:43.602Z,9.40
2019-01-11T13:05:14.874Z,9.17
2019-01-11T13:07:43.316Z,10.50
2019-01-11T13:10:14.278Z,9.50
2019-01-11T13:12:42.798Z,10.30
2019-01-11T13:15:13.664Z,9.47
2019-01-11T13:17:42.189Z,8.90
2019-01-11T13:20:12.760Z,10.03
2019-01-11T13:22:41.267Z,9.13
2019-01-11T13:25:10.174Z,9.30
2019-01-11T13:27:38.805Z,10.53
2019-01-11T13:30:11.189Z,15.40
2019-01-11T13:32:39.613Z,10.77
2019-01-11T13:35:09.148Z,28.13
2019-01-11T13:37:37.575Z,17.87
2019-01-11T13:40:09.179Z,17.70
2019-01-11T13:42:37.611Z,9.93
2019-01-11T13:45:06.831Z,19.77
2019-01-11T13:47:35.334Z,39.10
2019-01-11T13:50:06.221Z,24.97
2019-01-11T13:52:34.649Z,40.63
2019-01-11T13:55:03.090Z,11.00
2019-01-11T13:57:31.534Z,8.90
2019-01-11T13:59:59.984Z,9.10
2019-01-11T14:02:28.418Z,9.43
2019-01-11T14:04:56.885Z,8.83
2019-01-11T14:07:25.307Z,9.20
2019-01-11T14:09:53.747Z,8.27
2019-01-11T14:12:22.182Z,15.60
2019-01-11T14:14:50.639Z,9.00
2019-01-11T14:17:19.058Z,8.80
2019-01-11T14:19:47.503Z,8.93
2019-01-11T14:22:15.941Z,10.60
2019-01-11T14:24:44.381Z,9.17
2019-01-11T14:27:12.816Z,12.80
2019-01-11T14:29:41.258Z,8.33
2019-01-11T14:32:09.878Z,8.37
2019-01-11T14:34:38.314Z,8.00
2019-01-11T14:37:06.750Z,7.27
2019-01-11T14:39:35.195Z,9.70
2019-01-11T14:42:03.636Z,7.43
2019-01-11T14:44:32.119Z,7.80
2019-01-11T14:47:00.556Z,8.20
2019-01-11T14:49:28.987Z,7.70
2019-01-11T14:51:57.443Z,12.60
2019-01-11T14:54:25.892Z,11.57
2019-01-11T14:56:54.340Z,9.00
2019-01-11T14:59:22.777Z,11.83
2019-01-11T15:01:51.224Z,10.13
2019-01-11T15:04:19.712Z,9.80
2019-01-11T15:06:48.166Z,9.10
2019-01-11T15:09:16.598Z,8.30
2019-01-11T15:11:45.038Z,7.30
2019-01-11T15:14:13.463Z,8.70
2019-01-11T15:16:41.955Z,9.00
2019-01-11T15:19:14.022Z,8.57
2019-01-11T15:21:40.615Z,9.60
2019-01-11T15:24:09.047Z,7.83
2019-01-11T15:26:37.502Z,8.10
2019-01-11T15:29:05.994Z,8.20
2019-01-11T15:31:34.472Z,8.70
2019-01-11T15:34:02.912Z,8.17
2019-01-11T15:36:31.359Z,7.93
2019-01-11T15:38:59.796Z,8.20
2019-01-11T15:41:28.249Z,8.27
2019-01-11T15:43:56.754Z,7.80
2019-01-11T15:46:25.279Z,8.47
2019-01-11T15:48:53.699Z,8.23
2019-01-11T15:51:22.147Z,8.10
2019-01-11T15:53:50.569Z,10.87
2019-01-11T15:56:23.351Z,13.00
2019-01-11T15:58:52.690Z,18.83
2019-01-11T16:01:21.401Z,9.77
2019-01-11T16:03:49.833Z,11.10
2019-01-11T16:06:23.887Z,10.67
2019-01-11T16:08:55.453Z,9.13
2019-01-11T16:11:35.529Z,8.33
2019-01-11T16:14:09.777Z,9.70
2019-01-11T16:16:38.354Z,7.97
2019-01-11T16:19:06.801Z,7.80
2019-01-11T16:21:35.231Z,8.77
2019-01-11T16:24:04.165Z,7.97
2019-01-11T16:26:32.656Z,10.60
2019-01-11T16:29:01.104Z,8.10
2019-01-11T16:31:29.531Z,8.13
2019-01-11T16:33:57.975Z,9.57
2019-01-11T16:36:26.392Z,9.50
2019-01-11T16:38:54.831Z,9.20
2019-01-11T16:41:23.268Z,8.90
2019-01-11T16:43:51.699Z,8.23
2019-01-11T16:46:20.147Z,8.57
2019-01-11T16:48:48.595Z,8.10
2019-01-11T16:51:17.044Z,8.63
2019-01-11T16:53:45.475Z,8.53
2019-01-11T16:56:13.915Z,8.17
2019-01-11T16:58:42.352Z,9.67
2019-01-11T17:01:10.782Z,8.60
2019-01-11T17:03:39.201Z,8.60
2019-01-11T17:06:07.646Z,8.80
2019-01-11T17:08:36.076Z,8.63
2019-01-11T17:11:04.762Z,8.77
2019-01-11T17:13:40.353Z,9.00
2019-01-11T17:16:04.553Z,9.23
2019-01-11T17:18:32.995Z,7.30
2019-01-11T17:21:01.458Z,9.27
2019-01-11T17:23:29.884Z,8.13
2019-01-11T17:25:58.319Z,9.17
2019-01-11T17:28:26.755Z,7.80
2019-01-11T17:30:55.185Z,8.23
2019-01-11T17:33:23.624Z,7.80
2019-01-11T17:35:52.063Z,9.00
2019-01-11T17:38:20.491Z,8.83
2019-01-11T17:40:48.928Z,8.70
2019-01-11T17:43:17.353Z,8.33
2019-01-11T17:45:45.798Z,9.20
2019-01-11T17:48:14.235Z,9.30
2019-01-11T17:50:42.662Z,8.70
2019-01-11T17:53:11.096Z,8.60
2019-01-11T17:55:39.594Z,8.77
2019-01-11T17:58:08.025Z,7.70
2019-01-11T18:00:36.551Z,8.53
2019-01-11T18:03:05.340Z,8.70
2019-01-11T18:05:33.762Z,7.77
2019-01-11T18:08:02.200Z,8.70
2019-01-11T18:10:30.630Z,8.20
2019-01-11T18:12:59.077Z,8.40
2019-01-11T18:15:27.499Z,7.90
2019-01-11T18:17:55.926Z,6.77
2019-01-11T18:20:26.785Z,6.57
2019-01-11T18:22:55.246Z,6.43
2019-01-11T18:25:23.675Z,7.60
2019-01-11T18:27:52.119Z,6.67
2019-01-11T18:30:20.885Z,6.03
2019-01-11T18:32:49.335Z,8.00
2019-01-11T18:35:17.906Z,6.50
2019-01-11T18:37:46.418Z,6.63
2019-01-11T18:40:25.872Z,6.70
2019-01-11T18:42:54.369Z,5.90
2019-01-11T18:45:28.629Z,6.40
2019-01-11T18:47:52.960Z,7.80
2019-01-11T18:50:23.233Z,6.07
2019-01-11T18:52:51.797Z,7.40
2019-01-11T18:55:20.221Z,6.50
2019-01-11T18:57:48.731Z,6.53
2019-01-11T19:00:22.274Z,7.53
2019-01-11T19:02:50.732Z,7.47
2019-01-11T19:05:19.226Z,6.77
2019-01-11T19:07:47.799Z,7.07
2019-01-11T19:10:18.140Z,7.90
2019-01-11T19:12:46.636Z,7.00
2019-01-11T19:15:23.874Z,7.87
2019-01-11T19:17:52.380Z,7.20
2019-01-11T19:20:25.818Z,7.10
2019-01-11T19:22:54.388Z,6.80
2019-01-11T19:25:22.830Z,7.37
2019-01-11T19:27:51.505Z,7.30
2019-01-11T19:30:22.002Z,9.00
2019-01-11T19:32:50.490Z,9.47
2019-01-11T19:35:19.011Z,7.50
2019-01-11T19:37:47.431Z,8.00
2019-01-11T19:40:16.606Z,8.60
2019-01-11T19:42:45.048Z,10.60
2019-01-11T19:45:15.028Z,11.40
2019-01-11T19:47:43.508Z,8.63
2019-01-11T19:50:19.835Z,7.63
2019-01-11T19:52:48.402Z,7.53
2019-01-11T19:55:16.979Z,8.73
2019-01-11T19:57:45.492Z,7.97
2019-01-11T20:00:17.018Z,7.70
2019-01-11T20:02:45.622Z,7.03
2019-01-11T20:05:14.292Z,8.13
2019-01-11T20:07:42.786Z,9.87
2019-01-11T20:10:20.113Z,9.00
2019-01-11T20:12:49.430Z,6.97
2019-01-11T20:15:18.108Z,7.50
2019-01-11T20:17:46.703Z,8.03
2019-01-11T20:20:15.855Z,7.77
2019-01-11T20:22:44.613Z,7.70
2019-01-11T20:25:15.956Z,7.53
2019-01-11T20:27:44.521Z,9.57
2019-01-11T20:30:22.042Z,7.83
2019-01-11T20:32:50.543Z,9.00
2019-01-11T20:35:18.988Z,8.17
2019-01-11T20:37:47.497Z,8.40
2019-01-11T20:40:16.764Z,8.57
2019-01-11T20:42:45.429Z,8.33
2019-01-11T20:45:15.890Z,7.53
2019-01-11T20:47:44.470Z,8.27
2019-01-11T20:50:15.848Z,8.57
2019-01-11T20:52:44.287Z,7.33
2019-01-11T20:55:12.773Z,6.10
2019-01-11T20:57:41.216Z,8.23
2019-01-11T21:00:15.681Z,8.00
2019-01-11T21:02:44.188Z,7.10
2019-01-11T21:05:13.162Z,7.60
2019-01-11T21:07:42.556Z,8.70
2019-01-11T21:10:12.248Z,8.90
2019-01-11T21:12:40.701Z,9.53
2019-01-11T21:15:12.042Z,8.60
2019-01-11T21:17:40.553Z,8.07
2019-01-11T21:20:11.820Z,7.07
2019-01-11T21:22:40.266Z,9.13
2019-01-11T21:25:11.144Z,8.83
2019-01-11T21:27:39.659Z,8.20
2019-01-11T21:30:14.050Z,7.97
2019-01-11T21:32:42.501Z,8.13
2019-01-11T21:35:11.063Z,7.50
2019-01-11T21:37:39.538Z,7.27
2019-01-11T21:40:11.099Z,7.53
2019-01-11T21:42:39.540Z,7.80
2019-01-11T21:45:09.956Z,7.37
2019-01-11T21:47:38.531Z,7.37
2019-01-11T21:50:12.891Z,7.10
2019-01-11T21:52:41.316Z,7.57
2019-01-11T21:55:10.676Z,7.67
2019-01-11T21:57:39.106Z,6.70
2019-01-11T22:00:25.546Z,7.90
2019-01-11T22:02:54.169Z,7.67
2019-01-11T22:05:22.718Z,7.27
2019-01-11T22:07:51.176Z,6.80
2019-01-11T22:10:19.597Z,6.90
2019-01-11T22:12:48.094Z,8.80
2019-01-11T22:15:18.748Z,7.90
2019-01-11T22:17:47.303Z,9.43
2019-01-11T22:20:17.188Z,8.60
2019-01-11T22:22:45.610Z,8.17
2019-01-11T22:25:15.785Z,9.70
2019-01-11T22:27:44.279Z,8.80
2019-01-11T22:30:15.326Z,8.43
2019-01-11T22:32:43.749Z,9.13
2019-01-11T22:35:12.258Z,9.63
2019-01-11T22:37:40.690Z,8.63
2019-01-11T22:40:17.431Z,9.40
2019-01-11T22:42:46.026Z,9.80
2019-01-11T22:45:15.343Z,8.77
2019-01-11T22:47:43.844Z,10.07
2019-01-11T22:50:14.310Z,9.93
2019-01-11T22:52:42.879Z,9.50
2019-01-11T22:55:13.460Z,9.70
2019-01-11T22:57:41.893Z,8.33
2019-01-11T23:00:41.984Z,11.10
2019-01-11T23:03:16.326Z,9.87
2019-01-11T23:05:45.018Z,8.10
2019-01-11T23:08:15.608Z,9.97
2019-01-11T23:10:52.685Z,9.50
2019-01-11T23:13:21.104Z,8.00
2019-01-11T23:15:49.794Z,8.50
2019-01-11T23:18:18.244Z,8.70
2019-01-11T23:20:46.786Z,9.20
2019-01-11T23:23:15.235Z,8.97
2019-01-11T23:25:43.668Z,8.33
2019-01-11T23:28:12.113Z,9.20
2019-01-11T23:30:40.547Z,9.27
2019-01-11T23:33:09.004Z,8.47
2019-01-11T23:35:37.437Z,8.60
2019-01-11T23:38:05.883Z,8.13
2019-01-11T23:40:34.382Z,7.60
2019-01-11T23:43:02.831Z,6.83
2019-01-11T23:45:31.251Z,7.10
2019-01-11T23:47:59.707Z,6.90
2019-01-11T23:50:28.135Z,6.77
2019-01-11T23:52:56.584Z,7.10
2019-01-11T23:55:24.998Z,6.63
2019-01-11T23:57:53.435Z,6.43
